createdAt,value
2018-06-09T00:02:19.069Z,81.93
2018-06-09T00:04:47.387Z,68.87
2018-06-09T00:07:15.689Z,53.60
2018-06-09T00:09:44.009Z,59.77
2018-06-09T00:12:12.394Z,67.37
2018-06-09T00:14:40.732Z,70.87
2018-06-09T00:17:09.068Z,56.57
2018-06-09T00:19:37.457Z,58.77
2018-06-09T00:22:05.743Z,71.10
2018-06-09T00:24:34.057Z,68.57
2018-06-09T00:27:02.392Z,78.60
2018-06-09T00:29:30.759Z,75.47
2018-06-09T00:31:59.076Z,67.10
2018-06-09T00:34:27.432Z,63.43
2018-06-09T00:36:55.795Z,64.87
2018-06-09T00:39:23.848Z,61.00
2018-06-09T00:41:52.157Z,69.17
2018-06-09T00:44:20.579Z,69.33
2018-06-09T00:46:48.896Z,62.93
2018-06-09T00:49:17.240Z,66.63
2018-06-09T00:51:45.577Z,84.57
2018-06-09T00:54:13.919Z,68.60
2018-06-09T00:56:47.469Z,67.23
2018-06-09T00:59:15.808Z,79.63
2018-06-09T01:01:44.156Z,72.43
2018-06-09T01:04:12.498Z,72.90
2018-06-09T01:06:40.824Z,67.63
2018-06-09T01:09:09.330Z,59.27
2018-06-09T01:11:37.728Z,73.47
2018-06-09T01:14:06.106Z,69.87
2018-06-09T01:16:34.449Z,64.63
2018-06-09T01:19:02.812Z,77.27
2018-06-09T01:21:31.125Z,76.10
2018-06-09T01:23:59.491Z,67.53
2018-06-09T01:26:27.853Z,68.20
2018-06-09T01:28:56.177Z,63.73
2018-06-09T01:31:24.498Z,68.77
2018-06-09T01:33:52.843Z,68.23
2018-06-09T01:36:21.166Z,66.20
2018-06-09T01:38:49.231Z,74.93
2018-06-09T01:41:17.568Z,74.57
2018-06-09T01:43:45.906Z,74.60
2018-06-09T01:46:14.252Z,79.73
2018-06-09T01:48:42.603Z,80.67
2018-06-09T01:51:10.944Z,67.63
2018-06-09T01:53:39.284Z,78.57
2018-06-09T01:56:07.677Z,84.57
2018-06-09T01:58:35.985Z,81.17
2018-06-09T02:01:04.323Z,79.63
2018-06-09T02:03:32.648Z,83.70
2018-06-09T02:06:01.002Z,75.13
2018-06-09T02:08:29.322Z,72.80
2018-06-09T02:10:57.661Z,72.10
2018-06-09T02:13:25.978Z,74.73
2018-06-09T02:15:54.334Z,67.43
2018-06-09T02:18:22.684Z,65.43
2018-06-09T02:20:51.036Z,69.93
2018-06-09T02:23:19.379Z,63.17
2018-06-09T02:25:47.743Z,61.33
2018-06-09T02:28:16.153Z,58.87
2018-06-09T02:30:44.464Z,56.27
2018-06-09T02:33:12.790Z,57.53
2018-06-09T02:35:41.177Z,61.47
2018-06-09T02:38:09.507Z,59.10
2018-06-09T02:40:37.838Z,63.67
2018-06-09T02:43:06.175Z,67.30
2018-06-09T02:45:34.554Z,70.53
2018-06-09T02:48:02.918Z,66.07
2018-06-09T02:50:31.249Z,70.23
2018-06-09T02:52:59.582Z,60.90
2018-06-09T02:55:27.922Z,63.40
2018-06-09T02:57:56.269Z,69.67
2018-06-09T03:00:24.642Z,62.07
2018-06-09T03:02:53.241Z,75.20
2018-06-09T03:05:21.582Z,75.53
2018-06-09T03:07:49.944Z,70.93
2018-06-09T03:10:18.273Z,71.43
2018-06-09T03:12:46.629Z,69.07
2018-06-09T03:15:14.965Z,63.50
2018-06-09T03:17:43.285Z,66.50
2018-06-09T03:20:11.632Z,77.20
2018-06-09T03:22:39.949Z,56.07
2018-06-09T03:25:08.302Z,78.93
2018-06-09T03:27:36.633Z,79.90
2018-06-09T03:30:05.017Z,73.00
2018-06-09T03:32:33.442Z,71.77
2018-06-09T03:35:01.729Z,71.17
2018-06-09T03:37:30.065Z,71.47
2018-06-09T03:39:58.390Z,76.00
2018-06-09T03:45:01.486Z,100.37
2018-06-09T03:47:29.833Z,108.83
2018-06-09T03:49:58.293Z,91.73
2018-06-09T03:52:31.863Z,82.47
2018-06-09T03:55:00.208Z,82.50
2018-06-09T03:57:28.553Z,93.33
2018-06-09T03:59:56.903Z,110.53
2018-06-09T04:02:25.241Z,98.77
2018-06-09T04:04:53.622Z,98.83
2018-06-09T04:07:21.941Z,97.40
2018-06-09T04:09:50.255Z,92.43
2018-06-09T04:12:18.633Z,90.60
2018-06-09T04:14:47.006Z,99.80
2018-06-09T04:17:15.335Z,105.73
2018-06-09T04:19:43.684Z,97.20
2018-06-09T04:22:12.009Z,113.87
2018-06-09T04:24:40.325Z,88.80
2018-06-09T04:27:08.688Z,94.40
2018-06-09T04:29:37.022Z,69.43
2018-06-09T04:32:05.349Z,75.23
2018-06-09T04:34:33.657Z,67.90
2018-06-09T04:37:02.005Z,58.90
2018-06-09T04:39:30.317Z,73.93
2018-06-09T04:41:58.653Z,70.00
2018-06-09T04:44:26.981Z,59.10
2018-06-09T04:46:55.328Z,70.87
2018-06-09T04:49:23.645Z,82.53
2018-06-09T04:51:52.038Z,84.37
2018-06-09T04:54:20.364Z,77.97
2018-06-09T04:56:48.701Z,86.30
2018-06-09T04:59:17.096Z,74.27
2018-06-09T05:01:45.407Z,70.77
2018-06-09T05:04:15.813Z,100.47
2018-06-09T05:06:45.225Z,100.33
2018-06-09T05:09:14.017Z,102.17
2018-06-09T05:11:42.974Z,104.90
2018-06-09T05:14:11.605Z,128.03
2018-06-09T05:16:41.837Z,99.80
2018-06-09T05:19:11.427Z,90.43
2018-06-09T05:21:40.548Z,96.90
2018-06-09T05:24:10.257Z,110.57
2018-06-09T05:26:39.744Z,96.83
2018-06-09T05:29:09.609Z,109.83
2018-06-09T05:31:38.917Z,103.23
2018-06-09T05:34:07.241Z,111.53
2018-06-09T05:36:38.331Z,107.57
2018-06-09T05:39:08.772Z,101.40
2018-06-09T05:41:37.737Z,99.80
2018-06-09T05:44:07.381Z,96.67
2018-06-09T05:46:37.674Z,109.17
2018-06-09T05:49:07.174Z,95.40
2018-06-09T05:51:36.826Z,96.03
2018-06-09T05:54:06.253Z,91.10
2018-06-09T05:56:35.109Z,51.63
2018-06-09T05:59:09.309Z,94.60
2018-06-09T06:01:39.765Z,92.47
2018-06-09T06:04:10.043Z,100.47
2018-06-09T06:06:39.145Z,91.43
2018-06-09T06:09:09.613Z,100.00
2018-06-09T06:11:38.780Z,85.97
2018-06-09T06:14:07.163Z,86.80
2018-06-09T06:16:36.426Z,101.90
2018-06-09T06:19:05.294Z,94.10
2018-06-09T06:21:33.955Z,104.97
2018-06-09T06:24:03.537Z,102.87
2018-06-09T06:26:32.682Z,103.43
2018-06-09T06:29:01.805Z,111.60
2018-06-09T06:31:31.076Z,107.57
2018-06-09T06:33:59.410Z,108.90
2018-06-09T06:36:28.397Z,105.53
2018-06-09T06:38:58.199Z,103.53
2018-06-09T06:41:28.603Z,101.03
2018-06-09T06:43:58.642Z,92.97
2018-06-09T06:46:28.070Z,86.30
2018-06-09T06:48:57.488Z,87.33
2018-06-09T06:51:27.356Z,78.97
2018-06-09T06:53:57.834Z,92.33
2018-06-09T06:56:27.091Z,93.60
2018-06-09T06:58:59.399Z,83.03
2018-06-09T07:01:29.627Z,97.47
2018-06-09T07:03:58.058Z,91.57
2018-06-09T07:06:27.374Z,89.83
2018-06-09T07:08:56.653Z,85.97
2018-06-09T07:11:26.703Z,90.40
2018-06-09T07:13:55.854Z,87.63
2018-06-09T07:16:24.854Z,87.83
2018-06-09T07:18:54.912Z,91.90
2018-06-09T07:21:24.182Z,89.97
2018-06-09T07:23:52.566Z,89.30
2018-06-09T07:26:21.870Z,85.63
2018-06-09T07:28:51.751Z,81.77
2018-06-09T07:31:21.755Z,75.47
2018-06-09T07:33:51.377Z,77.13
2018-06-09T07:36:20.554Z,78.30
2018-06-09T07:38:50.319Z,72.13
2018-06-09T07:41:19.157Z,74.53
2018-06-09T07:43:47.696Z,70.70
2018-06-09T07:46:17.079Z,67.93
2018-06-09T07:48:46.837Z,65.50
2018-06-09T07:51:15.824Z,59.43
2018-06-09T07:53:44.152Z,61.53
2018-06-09T07:56:13.077Z,59.73
2018-06-09T07:58:42.569Z,61.33
2018-06-09T08:01:11.775Z,58.57
2018-06-09T08:03:44.073Z,55.63
2018-06-09T08:06:12.947Z,62.00
2018-06-09T08:08:41.794Z,56.90
2018-06-09T08:11:11.251Z,57.30
2018-06-09T08:13:39.563Z,55.17
2018-06-09T08:16:08.891Z,55.10
2018-06-09T08:18:37.725Z,59.37
2018-06-09T08:21:07.202Z,62.57
2018-06-09T08:23:35.636Z,61.33
2018-06-09T08:26:06.551Z,58.00
2018-06-09T08:28:35.748Z,57.70
2018-06-09T08:31:04.102Z,59.30
2018-06-09T08:33:32.481Z,54.47
2018-06-09T08:36:01.887Z,55.13
2018-06-09T08:38:30.795Z,51.83
2018-06-09T08:41:01.806Z,53.40
2018-06-09T08:43:30.174Z,47.83
2018-06-09T08:45:59.051Z,51.70
2018-06-09T08:48:28.127Z,52.00
2018-06-09T08:50:57.397Z,44.80
2018-06-09T08:53:25.961Z,47.80
2018-06-09T08:55:55.913Z,43.67
2018-06-09T08:58:24.928Z,44.67
2018-06-09T09:00:53.662Z,47.13
2018-06-09T09:03:23.191Z,44.67
2018-06-09T09:05:51.577Z,40.87
2018-06-09T09:08:20.466Z,39.07
2018-06-09T09:10:49.667Z,37.30
2018-06-09T09:13:18.572Z,39.63
2018-06-09T09:15:48.263Z,38.17
2018-06-09T09:18:17.776Z,37.90
2018-06-09T09:20:46.542Z,35.80
2018-06-09T09:23:14.766Z,37.67
2018-06-09T09:25:43.990Z,32.73
2018-06-09T09:28:13.079Z,35.83
2018-06-09T09:30:42.304Z,38.43
2018-06-09T09:33:11.503Z,36.30
2018-06-09T09:35:40.504Z,36.70
2018-06-09T09:38:10.270Z,34.00
2018-06-09T09:40:39.371Z,39.00
2018-06-09T09:43:08.061Z,35.23
2018-06-09T09:45:36.934Z,37.83
2018-06-09T09:48:06.973Z,34.70
2018-06-09T09:50:35.945Z,33.63
2018-06-09T09:53:05.073Z,34.30
2018-06-09T09:55:34.005Z,30.87
2018-06-09T09:58:03.489Z,29.50
2018-06-09T10:00:38.124Z,27.47
2018-06-09T10:03:07.357Z,29.80
2018-06-09T10:05:36.612Z,26.67
2018-06-09T10:08:05.452Z,28.93
2018-06-09T10:10:35.026Z,27.50
2018-06-09T10:13:04.489Z,27.20
2018-06-09T10:15:34.585Z,27.17
2018-06-09T10:18:03.593Z,28.70
2018-06-09T10:20:33.280Z,28.90
2018-06-09T10:23:02.134Z,28.60
2018-06-09T10:25:31.077Z,25.47
2018-06-09T10:28:00.609Z,27.60
2018-06-09T10:30:30.140Z,24.53
2018-06-09T10:33:02.595Z,27.53
2018-06-09T10:35:32.227Z,21.33
2018-06-09T10:38:01.512Z,23.00
2018-06-09T10:40:30.514Z,22.73
2018-06-09T10:42:59.210Z,27.90
2018-06-09T10:45:28.095Z,24.60
2018-06-09T10:47:57.162Z,20.87
2018-06-09T10:50:26.076Z,20.73
2018-06-09T10:52:55.454Z,22.83
2018-06-09T10:55:24.541Z,19.03
2018-06-09T10:57:54.135Z,19.30
2018-06-09T11:00:22.981Z,19.07
2018-06-09T11:02:52.112Z,20.40
2018-06-09T11:05:20.977Z,19.63
2018-06-09T11:07:50.054Z,21.07
2018-06-09T11:10:19.687Z,21.10
2018-06-09T11:12:49.916Z,21.07
2018-06-09T11:15:18.970Z,20.77
2018-06-09T11:17:48.710Z,21.53
2018-06-09T11:20:18.589Z,21.83
2018-06-09T11:22:47.642Z,26.27
2018-06-09T11:25:16.605Z,20.63
2018-06-09T11:27:46.394Z,18.93
2018-06-09T11:30:15.913Z,21.37
2018-06-09T11:32:44.781Z,19.27
2018-06-09T11:35:14.228Z,19.33
2018-06-09T11:37:43.601Z,20.67
2018-06-09T11:40:13.422Z,20.53
2018-06-09T11:42:42.127Z,21.77
2018-06-09T11:45:11.048Z,21.30
2018-06-09T11:47:40.701Z,20.97
2018-06-09T11:50:09.477Z,20.67
2018-06-09T11:52:38.618Z,21.97
2018-06-09T11:55:07.817Z,20.70
2018-06-09T11:57:37.111Z,21.97
2018-06-09T12:00:06.629Z,21.43
2018-06-09T12:02:37.006Z,19.70
2018-06-09T12:05:05.905Z,19.27
2018-06-09T12:07:34.830Z,21.10
2018-06-09T12:10:03.765Z,19.67
2018-06-09T12:12:32.542Z,18.63
2018-06-09T12:15:01.388Z,19.07
2018-06-09T12:17:32.340Z,19.13
2018-06-09T12:20:01.425Z,18.63
2018-06-09T12:22:30.604Z,18.27
2018-06-09T12:25:00.136Z,19.77
2018-06-09T12:27:29.143Z,19.77
2018-06-09T12:29:58.399Z,19.60
2018-06-09T12:32:27.852Z,21.17
2018-06-09T12:34:56.664Z,20.83
2018-06-09T12:37:26.516Z,20.77
2018-06-09T12:39:55.442Z,21.27
2018-06-09T12:42:24.805Z,19.40
2018-06-09T12:44:53.831Z,22.47
2018-06-09T12:47:22.588Z,21.67
2018-06-09T12:49:52.335Z,20.93
2018-06-09T12:52:21.184Z,22.57
2018-06-09T12:54:50.726Z,20.77
2018-06-09T12:57:19.841Z,21.17
2018-06-09T12:59:50.385Z,21.40
2018-06-09T13:02:19.841Z,22.83
2018-06-09T13:04:48.593Z,21.07
2018-06-09T13:07:17.549Z,20.57
2018-06-09T13:09:47.087Z,23.47
2018-06-09T13:12:15.710Z,25.17
2018-06-09T13:14:44.827Z,22.80
2018-06-09T13:17:14.051Z,23.90
2018-06-09T13:19:43.872Z,24.60
2018-06-09T13:22:15.753Z,23.83
2018-06-09T13:24:44.627Z,22.43
2018-06-09T13:27:14.256Z,22.57
2018-06-09T13:29:43.195Z,21.47
2018-06-09T13:32:12.955Z,23.40
2018-06-09T13:34:41.845Z,22.97
2018-06-09T13:37:11.729Z,22.40
2018-06-09T13:39:40.930Z,22.27
2018-06-09T13:42:09.835Z,21.00
2018-06-09T13:44:38.862Z,20.93
2018-06-09T13:47:07.671Z,20.53
2018-06-09T13:49:36.437Z,20.80
2018-06-09T13:52:05.579Z,20.00
2018-06-09T13:54:33.955Z,19.43
2018-06-09T13:57:03.771Z,19.20
2018-06-09T13:59:33.164Z,19.70
2018-06-09T14:02:01.986Z,19.13
2018-06-09T14:04:31.860Z,20.80
2018-06-09T14:07:01.419Z,20.33
2018-06-09T14:09:30.335Z,21.40
2018-06-09T14:12:00.107Z,20.83
2018-06-09T14:14:29.054Z,29.13
2018-06-09T14:16:59.495Z,33.07
2018-06-09T14:19:28.401Z,29.87
2018-06-09T14:21:57.558Z,28.87
2018-06-09T14:24:26.185Z,26.90
2018-06-09T14:26:55.116Z,29.87
2018-06-09T14:29:23.908Z,25.67
2018-06-09T14:31:56.841Z,24.53
2018-06-09T14:34:26.394Z,23.17
2018-06-09T14:36:55.243Z,23.57
2018-06-09T14:39:24.176Z,21.87
2018-06-09T14:41:54.166Z,24.00
2018-06-09T14:44:23.778Z,23.17
2018-06-09T14:46:53.114Z,24.53
2018-06-09T14:49:22.159Z,24.23
2018-06-09T14:51:51.193Z,23.93
2018-06-09T14:54:21.271Z,24.73
2018-06-09T14:56:50.194Z,24.43
2018-06-09T14:59:18.874Z,25.27
2018-06-09T15:01:47.844Z,21.83
2018-06-09T15:04:16.513Z,18.97
2018-06-09T15:06:45.080Z,24.53
2018-06-09T15:09:13.676Z,22.33
2018-06-09T15:11:42.006Z,24.80
2018-06-09T15:14:12.420Z,28.33
2018-06-09T15:16:41.157Z,25.60
2018-06-09T15:19:09.457Z,24.60
2018-06-09T15:21:38.257Z,23.37
2018-06-09T15:24:11.676Z,32.43
2018-06-09T15:26:40.535Z,23.70
2018-06-09T15:29:09.563Z,25.00
2018-06-09T15:31:39.127Z,30.53
2018-06-09T15:34:08.374Z,34.67
2018-06-09T15:36:37.697Z,32.00
2018-06-09T15:39:09.344Z,35.13
2018-06-09T15:41:38.313Z,32.17
2018-06-09T15:44:07.109Z,33.43
2018-06-09T15:46:36.384Z,32.77
2018-06-09T15:49:05.324Z,31.40
2018-06-09T15:51:36.151Z,30.03
2018-06-09T15:54:06.015Z,28.60
2018-06-09T15:56:35.110Z,27.20
2018-06-09T15:59:04.282Z,24.97
2018-06-09T16:01:35.954Z,23.60
2018-06-09T16:04:04.438Z,23.73
2018-06-09T16:06:34.526Z,25.43
2018-06-09T16:09:03.969Z,23.40
2018-06-09T16:11:32.898Z,20.37
2018-06-09T16:14:01.354Z,21.63
2018-06-09T16:16:31.525Z,21.60
2018-06-09T16:19:01.063Z,21.63
2018-06-09T16:21:29.839Z,22.63
2018-06-09T16:23:58.160Z,23.93
2018-06-09T16:26:27.891Z,20.73
2018-06-09T16:28:59.129Z,18.17
2018-06-09T16:31:28.022Z,17.63
2018-06-09T16:33:56.329Z,16.63
2018-06-09T16:36:25.119Z,16.93
2018-06-09T16:38:54.607Z,15.67
2018-06-09T16:41:23.995Z,15.60
2018-06-09T16:43:52.327Z,18.17
2018-06-09T16:46:21.270Z,18.20
2018-06-09T16:48:50.224Z,17.37
2018-06-09T16:51:20.640Z,16.33
2018-06-09T16:53:50.987Z,16.70
2018-06-09T16:56:19.718Z,16.83
2018-06-09T16:58:48.837Z,18.60
2018-06-09T17:01:17.871Z,17.50
2018-06-09T17:03:46.231Z,15.63
2018-06-09T17:06:15.456Z,17.07
2018-06-09T17:08:46.248Z,17.50
2018-06-09T17:11:15.023Z,17.77
2018-06-09T17:13:43.859Z,16.60
2018-06-09T17:16:13.706Z,17.17
2018-06-09T17:18:43.576Z,16.00
2018-06-09T17:21:18.853Z,17.27
2018-06-09T17:23:47.221Z,15.67
2018-06-09T17:26:16.575Z,17.77
2018-06-09T17:28:45.461Z,14.73
2018-06-09T17:31:14.899Z,13.80
2018-06-09T17:33:45.445Z,12.53
2018-06-09T17:36:14.561Z,13.47
2018-06-09T17:38:44.227Z,14.63
2018-06-09T17:41:14.592Z,14.67
2018-06-09T17:43:42.947Z,14.93
2018-06-09T17:46:12.857Z,14.20
2018-06-09T17:48:43.822Z,13.80
2018-06-09T17:51:14.021Z,12.97
2018-06-09T17:53:42.374Z,14.70
2018-06-09T17:56:11.933Z,14.37
2018-06-09T17:58:40.753Z,14.20
2018-06-09T18:01:09.886Z,13.77
2018-06-09T18:03:39.452Z,12.83
2018-06-09T18:06:08.210Z,15.90
2018-06-09T18:08:37.232Z,12.90
2018-06-09T18:11:05.982Z,14.97
2018-06-09T18:13:34.338Z,13.53
2018-06-09T18:16:03.894Z,14.00
2018-06-09T18:18:32.653Z,13.60
2018-06-09T18:21:01.649Z,13.60
2018-06-09T18:23:29.994Z,12.27
2018-06-09T18:25:59.284Z,13.07
2018-06-09T18:28:27.677Z,12.63
2018-06-09T18:30:56.580Z,12.40
2018-06-09T18:33:25.083Z,13.10
2018-06-09T18:35:55.148Z,12.33
2018-06-09T18:38:23.664Z,13.90
2018-06-09T18:40:52.609Z,13.43
2018-06-09T18:43:21.218Z,13.10
2018-06-09T18:45:50.086Z,13.27
2018-06-09T18:48:18.847Z,15.00
2018-06-09T18:50:47.929Z,14.97
2018-06-09T18:53:16.491Z,18.13
2018-06-09T18:55:46.423Z,17.50
2018-06-09T18:58:15.241Z,17.30
2018-06-09T19:00:44.897Z,17.67
2018-06-09T19:03:13.558Z,18.23
2018-06-09T19:05:43.225Z,16.50
2018-06-09T19:08:12.492Z,16.57
2018-06-09T19:10:41.903Z,18.17
2018-06-09T19:13:11.389Z,18.17
2018-06-09T19:15:41.134Z,16.43
2018-06-09T19:18:09.853Z,14.97
2018-06-09T19:20:38.914Z,17.43
2018-06-09T19:23:07.768Z,15.63
2018-06-09T19:25:36.464Z,16.63
2018-06-09T19:28:05.514Z,17.27
2018-06-09T19:30:34.773Z,16.57
2018-06-09T19:33:03.534Z,16.40
2018-06-09T19:35:32.256Z,16.70
2018-06-09T19:38:01.516Z,17.37
2018-06-09T19:40:30.137Z,19.40
2018-06-09T19:42:59.022Z,16.90
2018-06-09T19:45:27.843Z,16.20
2018-06-09T19:47:57.086Z,15.87
2018-06-09T19:50:25.972Z,16.63
2018-06-09T19:53:57.543Z,16.63
2018-06-09T19:56:26.394Z,19.43
2018-06-09T19:58:56.087Z,16.20
2018-06-09T20:01:25.322Z,16.73
2018-06-09T20:03:53.673Z,17.27
2018-06-09T20:06:22.653Z,16.00
2018-06-09T20:08:51.490Z,15.13
2018-06-09T20:11:20.228Z,16.87
2018-06-09T20:13:48.569Z,18.20
2018-06-09T20:16:18.187Z,18.60
2018-06-09T20:18:46.778Z,17.90
2018-06-09T20:21:17.358Z,17.90
2018-06-09T20:23:46.312Z,22.60
2018-06-09T20:26:16.400Z,21.03
2018-06-09T20:28:45.218Z,20.53
2018-06-09T20:31:13.508Z,23.10
2018-06-09T20:33:44.010Z,24.10
2018-06-09T20:36:13.409Z,23.23
2018-06-09T20:38:42.272Z,21.50
2018-06-09T20:41:11.745Z,24.23
2018-06-09T20:43:40.709Z,23.27
2018-06-09T20:46:12.648Z,24.27
2018-06-09T20:48:41.862Z,22.60
2018-06-09T20:51:11.036Z,25.30
2018-06-09T20:53:40.181Z,24.20
2018-06-09T20:56:08.897Z,25.37
2018-06-09T20:58:40.287Z,25.30
2018-06-09T21:01:09.887Z,28.43
2018-06-09T21:03:38.208Z,31.20
2018-06-09T21:06:07.481Z,25.23
2018-06-09T21:08:36.870Z,28.03
2018-06-09T21:11:06.327Z,24.83
2018-06-09T21:13:34.643Z,23.07
2018-06-09T21:16:04.060Z,25.80
2018-06-09T21:18:33.141Z,27.63
2018-06-09T21:21:02.847Z,35.37
2018-06-09T21:23:31.145Z,34.50
2018-06-09T21:26:00.034Z,28.00
2018-06-09T21:28:33.564Z,29.13
2018-06-09T21:31:07.648Z,31.33
2018-06-09T21:34:06.831Z,23.60
2018-06-09T21:36:41.356Z,22.77
2018-06-09T21:39:14.903Z,22.53
2018-06-09T21:41:45.323Z,21.37
2018-06-09T21:44:18.849Z,21.53
2018-06-09T21:46:49.734Z,22.23
2018-06-09T21:49:19.205Z,23.63
2018-06-09T21:51:48.120Z,23.23
2018-06-09T21:54:17.200Z,24.53
2018-06-09T21:56:47.954Z,23.47
2018-06-09T21:59:16.978Z,23.83
2018-06-09T22:01:45.358Z,25.70
2018-06-09T22:04:13.657Z,29.10
2018-06-09T22:06:42.014Z,62.50
2018-06-09T22:09:10.345Z,61.67
2018-06-09T22:11:38.685Z,43.83
2018-06-09T22:14:07.013Z,41.20
2018-06-09T22:16:35.348Z,29.47
2018-06-09T22:19:03.697Z,30.83
2018-06-09T22:21:32.049Z,27.03
2018-06-09T22:24:00.357Z,28.13
2018-06-09T22:26:29.623Z,27.13
2018-06-09T22:28:57.974Z,28.07
2018-06-09T22:31:26.314Z,29.67
2018-06-09T22:33:54.645Z,30.63
2018-06-09T22:36:22.982Z,29.80
2018-06-09T22:38:51.013Z,31.17
2018-06-09T22:41:19.342Z,29.77
2018-06-09T22:43:47.697Z,26.37
2018-06-09T22:46:16.060Z,22.93
2018-06-09T22:48:44.367Z,26.13
2018-06-09T22:51:12.779Z,25.73
2018-06-09T22:53:41.142Z,28.10
2018-06-09T22:56:09.478Z,24.40
2018-06-09T22:58:37.838Z,28.10
2018-06-09T23:01:06.265Z,28.93
2018-06-09T23:03:34.721Z,28.80
2018-06-09T23:06:03.142Z,26.87
2018-06-09T23:08:31.446Z,28.47
2018-06-09T23:10:59.791Z,28.30
2018-06-09T23:13:28.146Z,32.53
2018-06-09T23:15:56.469Z,28.07
2018-06-09T23:18:24.809Z,27.30
2018-06-09T23:20:53.134Z,28.47
2018-06-09T23:23:21.483Z,23.77
2018-06-09T23:25:49.811Z,32.00
2018-06-09T23:28:18.165Z,26.70
2018-06-09T23:30:46.552Z,25.53
2018-06-09T23:33:14.821Z,26.57
2018-06-09T23:35:43.152Z,28.30
2018-06-09T23:38:11.491Z,26.37
2018-06-09T23:40:39.824Z,24.17
2018-06-09T23:43:08.171Z,25.30
2018-06-09T23:45:36.473Z,27.17
2018-06-09T23:48:04.858Z,30.90
2018-06-09T23:50:33.174Z,26.40
2018-06-09T23:53:01.499Z,27.80
2018-06-09T23:55:29.812Z,29.93
2018-06-09T23:57:58.153Z,27.73
